createdAt,value
2019-02-16T00:00:20.342Z,93.42
2019-02-16T00:04:24.680Z,93.47
2019-02-16T00:08:27.469Z,93.45
2019-02-16T00:12:30.244Z,93.53
2019-02-16T00:16:33.122Z,93.62
2019-02-16T00:20:35.843Z,93.64
2019-02-16T00:24:39.045Z,93.62
2019-02-16T00:28:41.653Z,93.74
2019-02-16T00:32:44.355Z,93.67
2019-02-16T00:36:47.241Z,93.79
2019-02-16T00:40:50.017Z,94.00
2019-02-16T00:44:52.402Z,93.96
2019-02-16T00:48:55.280Z,93.90
2019-02-16T00:52:57.652Z,93.98
2019-02-16T00:57:00.101Z,94.01
2019-02-16T01:01:02.975Z,93.99
2019-02-16T01:05:06.211Z,94.03
2019-02-16T01:09:08.674Z,94.04
2019-02-16T01:13:11.211Z,94.01
2019-02-16T01:17:13.563Z,94.00
2019-02-16T01:21:22.558Z,93.96
2019-02-16T01:25:20.086Z,93.95
2019-02-16T01:29:22.578Z,93.99
2019-02-16T01:33:24.936Z,94.07
2019-02-16T01:37:27.590Z,94.08
2019-02-16T01:41:30.287Z,94.15
2019-02-16T01:45:33.164Z,94.18
2019-02-16T01:49:35.982Z,94.15
2019-02-16T01:53:38.830Z,94.19
2019-02-16T01:57:41.286Z,94.14
2019-02-16T02:01:44.049Z,94.11
2019-02-16T02:05:46.424Z,94.10
2019-02-16T02:09:49.210Z,94.10
2019-02-16T02:13:51.809Z,94.16
2019-02-16T02:17:54.495Z,94.19
2019-02-16T02:21:56.852Z,94.28
2019-02-16T02:25:59.582Z,94.31
2019-02-16T02:30:02.296Z,94.31
2019-02-16T02:34:04.816Z,94.29
2019-02-16T02:38:07.194Z,94.27
2019-02-16T02:42:09.822Z,94.22
2019-02-16T02:46:12.561Z,94.22
2019-02-16T02:50:15.659Z,94.31
2019-02-16T02:54:18.119Z,94.26
2019-02-16T02:58:20.567Z,94.23
2019-02-16T03:02:22.932Z,94.26
2019-02-16T03:06:25.658Z,94.26
2019-02-16T03:10:28.009Z,94.30
2019-02-16T03:14:30.509Z,94.35
2019-02-16T03:18:32.914Z,94.38
2019-02-16T03:23:31.215Z,94.30
2019-02-16T03:28:26.337Z,94.30
2019-02-16T03:33:16.100Z,94.25
2019-02-16T03:37:55.994Z,94.23
2019-02-16T03:41:58.942Z,94.17
2019-02-16T03:46:01.713Z,94.14
2019-02-16T03:50:06.166Z,94.17
2019-02-16T03:54:09.137Z,94.13
2019-02-16T03:58:12.907Z,94.05
2019-02-16T04:02:15.543Z,93.98
2019-02-16T04:06:18.221Z,94.00
2019-02-16T04:10:20.709Z,93.98
2019-02-16T04:14:23.510Z,93.98
2019-02-16T04:18:26.344Z,93.96
2019-02-16T04:22:29.181Z,93.95
2019-02-16T04:26:31.906Z,93.97
2019-02-16T04:30:34.758Z,94.01
2019-02-16T04:34:38.465Z,94.00
2019-02-16T04:38:41.199Z,94.06
2019-02-16T04:42:43.795Z,94.09
2019-02-16T04:46:46.465Z,94.06
2019-02-16T04:50:49.067Z,94.05
2019-02-16T04:54:52.600Z,94.05
2019-02-16T04:58:55.331Z,94.16
2019-02-16T05:02:58.000Z,94.16
2019-02-16T05:07:00.829Z,94.18
2019-02-16T05:11:03.464Z,94.15
2019-02-16T05:15:06.022Z,94.19
2019-02-16T05:19:08.732Z,94.25
2019-02-16T05:23:11.435Z,94.24
2019-02-16T05:27:14.202Z,94.26
2019-02-16T05:31:16.899Z,94.29
2019-02-16T05:35:19.622Z,94.24
2019-02-16T05:39:22.187Z,94.13
2019-02-16T05:43:24.847Z,93.92
2019-02-16T05:47:27.502Z,93.88
2019-02-16T05:51:30.954Z,93.75
2019-02-16T05:55:33.954Z,93.68
2019-02-16T05:59:36.770Z,93.75
2019-02-16T06:03:39.794Z,93.70
2019-02-16T06:07:42.824Z,93.60
2019-02-16T06:11:45.387Z,93.49
2019-02-16T06:15:48.352Z,93.60
2019-02-16T06:19:50.768Z,93.36
2019-02-16T06:23:53.380Z,93.24
2019-02-16T06:27:55.911Z,93.08
2019-02-16T06:31:58.578Z,92.76
2019-02-16T06:36:05.796Z,92.31
2019-02-16T06:40:08.560Z,90.97
2019-02-16T06:44:10.913Z,90.21
2019-02-16T06:48:13.341Z,89.65
2019-02-16T06:52:15.678Z,89.26
2019-02-16T06:56:27.541Z,88.87
2019-02-16T07:00:31.115Z,88.58
2019-02-16T07:04:33.531Z,88.52
2019-02-16T07:08:35.897Z,87.65
2019-02-16T07:12:38.387Z,87.47
2019-02-16T07:16:56.087Z,87.51
2019-02-16T07:20:58.531Z,86.81
2019-02-16T07:25:00.902Z,86.25
2019-02-16T07:29:03.346Z,85.56
2019-02-16T07:33:05.808Z,85.56
2019-02-16T07:37:08.447Z,85.62
2019-02-16T07:41:10.920Z,84.58
2019-02-16T07:45:27.375Z,84.54
2019-02-16T07:49:37.937Z,84.27
2019-02-16T07:53:59.101Z,83.87
2019-02-16T07:58:34.262Z,82.89
2019-02-16T08:03:01.865Z,82.37
2019-02-16T08:07:13.696Z,81.99
2019-02-16T08:11:25.773Z,81.63
2019-02-16T08:15:53.057Z,80.56
2019-02-16T08:20:13.038Z,80.26
2019-02-16T08:24:38.701Z,80.32
2019-02-16T08:29:06.081Z,79.05
2019-02-16T08:33:15.938Z,78.39
2019-02-16T08:37:34.401Z,77.27
2019-02-16T08:41:50.822Z,75.94
2019-02-16T08:46:12.866Z,76.45
2019-02-16T08:50:33.146Z,75.07
2019-02-16T08:55:00.332Z,73.70
2019-02-16T08:59:24.508Z,73.94
2019-02-16T09:03:59.602Z,73.52
2019-02-16T09:08:20.668Z,72.84
2019-02-16T09:12:51.363Z,72.24
2019-02-16T09:17:13.309Z,71.43
2019-02-16T09:21:23.006Z,70.20
2019-02-16T09:25:49.928Z,71.09
2019-02-16T09:30:14.779Z,69.33
2019-02-16T09:34:23.961Z,67.81
2019-02-16T09:38:54.502Z,67.26
2019-02-16T09:43:08.041Z,66.57
2019-02-16T09:47:19.203Z,67.21
2019-02-16T09:51:40.316Z,65.53
2019-02-16T09:56:00.456Z,64.51
2019-02-16T10:00:10.730Z,64.19
2019-02-16T10:04:31.992Z,64.42
2019-02-16T10:08:53.347Z,64.21
2019-02-16T10:13:14.730Z,63.23
2019-02-16T10:17:42.427Z,63.17
2019-02-16T10:22:16.135Z,62.13
2019-02-16T10:26:37.270Z,61.45
2019-02-16T10:30:47.971Z,61.23
2019-02-16T10:35:09.196Z,61.16
2019-02-16T10:39:19.790Z,60.85
2019-02-16T10:43:40.890Z,60.23
2019-02-16T10:48:14.141Z,60.66
2019-02-16T10:52:33.616Z,59.34
2019-02-16T10:57:04.196Z,59.28
2019-02-16T11:01:25.469Z,58.36
2019-02-16T11:05:53.061Z,58.77
2019-02-16T11:10:19.345Z,58.16
2019-02-16T11:14:46.416Z,57.82
2019-02-16T11:18:55.919Z,57.57
2019-02-16T11:23:17.020Z,57.56
2019-02-16T11:27:44.632Z,57.49
2019-02-16T11:32:08.889Z,57.62
2019-02-16T11:36:35.300Z,57.09
2019-02-16T11:40:59.103Z,56.67
2019-02-16T11:45:20.166Z,57.31
2019-02-16T11:49:33.272Z,56.37
2019-02-16T11:53:52.990Z,56.01
2019-02-16T11:58:16.222Z,56.78
2019-02-16T12:02:52.964Z,56.95
2019-02-16T12:07:14.247Z,56.47
2019-02-16T12:11:53.939Z,57.30
2019-02-16T12:16:15.100Z,58.12
2019-02-16T12:20:39.000Z,57.45
2019-02-16T12:25:04.867Z,56.64
2019-02-16T12:29:30.523Z,57.05
2019-02-16T12:33:58.021Z,57.80
2019-02-16T12:38:10.012Z,57.65
2019-02-16T12:42:43.425Z,57.97
2019-02-16T12:47:16.830Z,57.97
2019-02-16T12:51:40.752Z,58.15
2019-02-16T12:55:59.192Z,58.31
2019-02-16T13:00:14.631Z,57.43
2019-02-16T13:04:38.746Z,58.54
2019-02-16T13:08:48.765Z,58.88
2019-02-16T13:12:58.009Z,59.01
2019-02-16T13:17:18.138Z,58.98
2019-02-16T13:21:57.660Z,59.51
2019-02-16T13:26:16.820Z,59.13
2019-02-16T13:30:36.766Z,59.72
2019-02-16T13:34:52.166Z,60.39
2019-02-16T13:39:13.258Z,60.29
2019-02-16T13:43:33.690Z,60.73
2019-02-16T13:47:54.804Z,59.90
2019-02-16T13:52:14.672Z,60.76
2019-02-16T13:56:28.064Z,61.00
2019-02-16T14:00:58.295Z,60.63
2019-02-16T14:05:22.474Z,61.39
2019-02-16T14:09:42.360Z,63.23
2019-02-16T14:13:56.064Z,63.41
2019-02-16T14:17:58.496Z,63.30
2019-02-16T14:22:00.824Z,63.82
2019-02-16T14:26:03.433Z,64.57
2019-02-16T14:30:06.453Z,64.88
2019-02-16T14:34:09.489Z,65.30
2019-02-16T14:38:35.398Z,65.65
2019-02-16T14:42:37.884Z,66.36
2019-02-16T14:46:40.220Z,66.44
2019-02-16T14:50:42.674Z,67.22
2019-02-16T14:54:45.128Z,67.67
2019-02-16T14:58:47.538Z,67.78
2019-02-16T15:02:49.880Z,67.52
2019-02-16T15:06:52.338Z,68.53
2019-02-16T15:10:54.739Z,69.02
2019-02-16T15:14:57.187Z,68.09
2019-02-16T15:18:59.776Z,69.11
2019-02-16T15:23:02.411Z,68.94
2019-02-16T15:27:04.849Z,70.08
2019-02-16T15:31:07.364Z,70.22
2019-02-16T15:35:10.697Z,70.32
2019-02-16T15:39:13.155Z,71.14
2019-02-16T15:43:15.590Z,71.22
2019-02-16T15:47:18.408Z,71.50
2019-02-16T15:51:20.770Z,72.24
2019-02-16T15:55:23.163Z,71.98
2019-02-16T15:59:25.502Z,72.27
2019-02-16T16:03:29.064Z,72.20
2019-02-16T16:07:31.797Z,72.30
2019-02-16T16:11:45.239Z,72.45
2019-02-16T16:16:01.323Z,73.29
2019-02-16T16:20:25.396Z,72.89
2019-02-16T16:24:39.684Z,73.38
2019-02-16T16:29:00.794Z,73.04
2019-02-16T16:33:31.425Z,72.38
2019-02-16T16:37:59.204Z,72.92
2019-02-16T16:42:19.154Z,72.96
2019-02-16T16:46:39.292Z,73.27
2019-02-16T16:50:50.015Z,73.21
2019-02-16T16:55:14.458Z,73.99
2019-02-16T16:59:35.536Z,73.74
2019-02-16T17:04:12.544Z,73.55
2019-02-16T17:08:29.153Z,73.41
2019-02-16T17:12:49.232Z,74.08
2019-02-16T17:17:12.711Z,74.35
2019-02-16T17:21:35.870Z,74.56
2019-02-16T17:26:16.346Z,74.92
2019-02-16T17:30:31.745Z,75.11
2019-02-16T17:34:52.814Z,74.81
2019-02-16T17:39:12.879Z,75.24
2019-02-16T17:43:33.649Z,75.52
2019-02-16T17:48:07.895Z,75.52
2019-02-16T17:52:27.528Z,76.62
2019-02-16T17:56:46.796Z,76.89
2019-02-16T18:01:08.756Z,76.63
2019-02-16T18:05:34.587Z,76.65
2019-02-16T18:09:58.794Z,77.79
2019-02-16T18:14:16.968Z,78.15
2019-02-16T18:18:51.739Z,78.66
2019-02-16T18:23:09.799Z,78.60
2019-02-16T18:27:36.912Z,78.33
2019-02-16T18:32:13.712Z,78.24
2019-02-16T18:36:28.704Z,78.82
2019-02-16T18:40:42.611Z,78.73
2019-02-16T18:45:06.500Z,78.24
2019-02-16T18:49:24.414Z,78.95
2019-02-16T18:53:58.325Z,79.48
2019-02-16T18:58:12.048Z,79.60
2019-02-16T19:02:32.299Z,78.68
2019-02-16T19:06:45.214Z,78.92
2019-02-16T19:11:09.465Z,79.16
2019-02-16T19:15:48.940Z,79.04
2019-02-16T19:20:16.611Z,78.69
2019-02-16T19:24:27.953Z,78.35
2019-02-16T19:28:50.883Z,78.21
2019-02-16T19:33:05.069Z,78.44
2019-02-16T19:37:23.143Z,77.94
2019-02-16T19:41:43.556Z,77.71
2019-02-16T19:46:20.465Z,78.43
2019-02-16T19:50:30.683Z,78.40
2019-02-16T19:54:44.213Z,78.85
2019-02-16T19:59:08.712Z,79.09
2019-02-16T20:03:32.979Z,78.82
2019-02-16T20:07:52.962Z,79.46
2019-02-16T20:12:05.274Z,79.81
2019-02-16T20:16:45.538Z,79.41
2019-02-16T20:21:07.270Z,80.13
2019-02-16T20:25:27.875Z,79.79
2019-02-16T20:29:48.032Z,79.25
2019-02-16T20:34:15.686Z,79.29
2019-02-16T20:38:36.764Z,79.43
2019-02-16T20:42:57.924Z,80.12
2019-02-16T20:47:09.407Z,80.48
2019-02-16T20:51:18.541Z,80.23
2019-02-16T20:55:55.071Z,80.34
2019-02-16T21:00:22.673Z,80.31
2019-02-16T21:04:42.952Z,79.15
2019-02-16T21:09:16.239Z,79.79
2019-02-16T21:13:33.170Z,80.13
2019-02-16T21:17:57.575Z,79.49
2019-02-16T21:22:21.534Z,79.30
2019-02-16T21:26:46.578Z,79.66
2019-02-16T21:30:58.844Z,80.43
2019-02-16T21:35:09.822Z,80.48
2019-02-16T21:39:20.217Z,79.68
2019-02-16T21:43:41.640Z,79.50
2019-02-16T21:48:05.788Z,79.20
2019-02-16T21:52:27.047Z,78.91
2019-02-16T21:56:48.778Z,79.20
2019-02-16T22:01:16.275Z,79.29
2019-02-16T22:05:36.600Z,79.20
2019-02-16T22:09:58.199Z,79.08
2019-02-16T22:14:00.541Z,78.82
2019-02-16T22:18:02.984Z,78.49
2019-02-16T22:22:05.314Z,78.23
2019-02-16T22:26:07.750Z,78.37
2019-02-16T22:30:11.767Z,78.51
2019-02-16T22:34:14.170Z,78.43
2019-02-16T22:38:16.481Z,77.60
2019-02-16T22:42:19.128Z,77.12
2019-02-16T22:46:21.461Z,77.00
2019-02-16T22:50:23.897Z,76.60
2019-02-16T22:54:27.542Z,76.03
2019-02-16T22:58:29.928Z,75.02
2019-02-16T23:02:32.241Z,73.94
2019-02-16T23:06:34.650Z,73.61
2019-02-16T23:10:37.088Z,73.05
2019-02-16T23:14:39.447Z,72.96
2019-02-16T23:18:41.812Z,72.41
2019-02-16T23:22:44.241Z,71.94
2019-02-16T23:26:46.598Z,71.20
2019-02-16T23:30:50.573Z,70.86
2019-02-16T23:34:52.956Z,69.77
2019-02-16T23:38:55.556Z,69.54
2019-02-16T23:42:57.861Z,70.54
2019-02-16T23:47:00.307Z,69.57
2019-02-16T23:51:02.850Z,69.46
2019-02-16T23:55:05.728Z,68.88
2019-02-16T23:59:08.065Z,68.63
